Time;durP1;ratioP1;P1;durP2;ratioP2;P2;SDS_P1;SDS_P2;PMS_P1;PMS_P2;Temp;Humidity;BMP_temperature;BMP_pressure;BME280_temperature;BME280_humidity;BME280_pressure;Samples;Min_cycle;Max_cycle;Signal;HPM_P1;HPM_P2
2022/02/17 00:00:46;;;;;;;13.50;2.70;;;10.00;99.90;;;;;;5031538;28;20245;-59
2022/02/17 00:03:15;;;;;;;14.60;3.30;;;10.00;99.90;;;;;;5031323;28;20247;-59
2022/02/17 00:05:45;;;;;;;18.47;3.50;;;10.00;99.90;;;;;;5030087;28;20225;-59
2022/02/17 00:08:20;;;;;;;13.60;2.90;;;10.00;99.90;;;;;;5011577;28;20649;-59
2022/02/17 00:10:48;;;;;;;15.00;3.03;;;10.00;99.90;;;;;;5011516;28;20783;-59
2022/02/17 00:13:16;;;;;;;15.80;3.07;;;10.00;99.90;;;;;;5011701;28;20295;-59
2022/02/17 00:15:44;;;;;;;14.37;3.73;;;9.90;99.90;;;;;;5011404;28;20237;-59
2022/02/17 00:18:21;;;;;;;14.43;3.30;;;9.90;99.90;;;;;;5011539;28;20230;-59
2022/02/17 00:20:53;;;;;;;19.33;3.13;;;9.90;99.90;;;;;;5011614;28;20315;-59
2022/02/17 00:23:21;;;;;;;11.77;3.10;;;10.00;99.90;;;;;;5010989;28;20245;-58
2022/02/17 00:25:50;;;;;;;15.70;3.10;;;10.00;99.90;;;;;;5008150;28;20619;-58
2022/02/17 00:28:18;;;;;;;16.10;3.10;;;10.00;99.90;;;;;;5006326;28;20332;-59
2022/02/17 00:30:46;;;;;;;15.03;3.47;;;10.00;99.90;;;;;;5011238;28;20661;-59
2022/02/17 00:33:15;;;;;;;16.47;3.50;;;10.00;99.90;;;;;;5011107;28;20239;-59
2022/02/17 00:35:44;;;;;;;14.10;3.00;;;10.00;99.90;;;;;;5009457;28;20253;-59
2022/02/17 00:38:14;;;;;;;12.57;2.63;;;10.00;99.90;;;;;;5010760;28;20276;-58
2022/02/17 00:40:42;;;;;;;14.13;2.90;;;10.00;99.90;;;;;;5011077;28;20371;-59
2022/02/17 00:43:10;;;;;;;15.33;3.20;;;10.00;99.90;;;;;;5010990;28;20299;-59
2022/02/17 00:45:39;;;;;;;14.87;3.90;;;10.00;99.90;;;;;;5010471;28;20257;-58
2022/02/17 00:48:08;;;;;;;15.70;3.17;;;10.00;99.90;;;;;;5010981;28;20237;-58
2022/02/17 00:50:40;;;;;;;16.97;3.40;;;10.00;99.90;;;;;;5009608;28;20324;-59
2022/02/17 00:53:08;;;;;;;17.23;2.73;;;10.00;99.90;;;;;;5009477;28;20238;-59
2022/02/17 00:55:38;;;;;;;9.50;2.67;;;10.00;99.90;;;;;;5012098;28;20253;-59
2022/02/17 00:58:07;;;;;;;18.03;3.07;;;9.90;99.90;;;;;;5018940;28;20309;-58
2022/02/17 01:00:35;;;;;;;8.17;2.53;;;9.90;99.90;;;;;;5009455;28;20248;-59
2022/02/17 01:03:08;;;;;;;11.93;2.80;;;10.00;99.90;;;;;;5009773;28;20241;-59
2022/02/17 01:05:36;;;;;;;14.63;3.37;;;10.00;99.90;;;;;;5011190;28;20776;-59
2022/02/17 01:08:05;;;;;;;14.37;3.23;;;10.00;99.90;;;;;;5010765;28;20246;-58
2022/02/17 01:10:33;;;;;;;15.63;3.33;;;10.00;99.90;;;;;;5010560;28;20273;-59
2022/02/17 01:13:03;;;;;;;13.77;2.87;;;9.90;99.90;;;;;;5009458;28;20241;-59
2022/02/17 01:15:32;;;;;;;11.63;3.37;;;9.90;99.90;;;;;;5010697;28;20239;-59
2022/02/17 01:18:00;;;;;;;11.20;2.93;;;9.90;99.90;;;;;;5010802;28;20594;-60
2022/02/17 01:20:36;;;;;;;9.97;2.40;;;9.90;99.90;;;;;;5009049;28;20252;-59
2022/02/17 01:23:04;;;;;;;17.27;3.60;;;9.90;99.90;;;;;;5010400;28;20249;-58
2022/02/17 01:25:33;;;;;;;18.53;3.73;;;9.90;99.90;;;;;;5008068;28;20294;-58
2022/02/17 01:28:04;;;;;;;19.00;3.47;;;9.90;99.90;;;;;;5019075;28;20243;-59
2022/02/17 01:30:33;;;;;;;11.57;2.60;;;10.00;99.90;;;;;;5009101;28;20279;-59
2022/02/17 01:33:02;;;;;;;14.20;2.87;;;9.90;99.90;;;;;;5009195;28;20236;-59
2022/02/17 01:35:31;;;;;;;18.40;3.53;;;9.90;99.90;;;;;;5009089;28;20295;-59
2022/02/17 01:38:04;;;;;;;13.50;3.00;;;9.90;99.90;;;;;;5009158;28;20245;-59
2022/02/17 01:40:35;;;;;;;16.13;2.97;;;9.90;99.90;;;;;;5009077;28;20237;-58
2022/02/17 01:43:07;;;;;;;11.93;2.33;;;10.00;99.90;;;;;;5009092;28;20292;-59
2022/02/17 01:45:39;;;;;;;14.47;2.80;;;9.90;99.90;;;;;;5010049;28;20238;-59
2022/02/17 01:48:07;;;;;;;12.40;3.00;;;10.00;99.90;;;;;;5008961;28;20234;-59
2022/02/17 01:50:41;;;;;;;15.60;3.53;;;10.00;99.90;;;;;;5011131;28;20360;-58
2022/02/17 01:53:12;;;;;;;12.67;2.73;;;10.00;99.90;;;;;;5013929;28;20248;-58
2022/02/17 01:55:43;;;;;;;9.27;2.57;;;10.00;99.90;;;;;;5006193;28;23266;-59
2022/02/17 01:58:15;;;;;;;14.77;2.90;;;10.00;99.90;;;;;;5018784;28;20233;-58
2022/02/17 02:00:44;;;;;;;17.90;3.30;;;9.90;99.90;;;;;;4990940;28;20287;-59
2022/02/17 02:03:14;;;;;;;11.77;2.80;;;9.90;99.90;;;;;;4997021;28;20728;-59
2022/02/17 02:05:55;;;;;;;12.27;2.83;;;9.80;99.90;;;;;;5011988;28;20755;-58
2022/02/17 02:08:26;;;;;;;15.10;2.93;;;9.80;99.90;;;;;;5012112;28;20242;-59
2022/02/17 02:10:55;;;;;;;15.13;2.87;;;9.80;99.90;;;;;;5012473;28;20701;-59
2022/02/17 02:13:24;;;;;;;11.27;2.60;;;9.70;99.90;;;;;;5013701;28;20238;-59
2022/02/17 02:15:55;;;;;;;14.37;3.07;;;9.70;99.90;;;;;;5012420;28;20257;-59
2022/02/17 02:18:24;;;;;;;13.90;3.13;;;9.70;99.90;;;;;;5012107;28;20599;-59
2022/02/17 02:20:55;;;;;;;16.23;3.57;;;9.70;99.90;;;;;;5012195;28;20241;-59
2022/02/17 02:23:33;;;;;;;13.70;3.40;;;9.70;99.90;;;;;;5013044;28;20230;-59
2022/02/17 02:26:04;;;;;;;18.43;3.43;;;9.60;99.90;;;;;;5015221;28;20357;-59
2022/02/17 02:28:33;;;;;;;14.30;3.30;;;9.50;99.90;;;;;;5019263;28;20231;-59
2022/02/17 02:31:04;;;;;;;21.87;4.30;;;9.50;99.90;;;;;;5012088;28;20324;-59
2022/02/17 02:33:32;;;;;;;13.30;3.17;;;9.40;99.90;;;;;;5011637;28;20255;-58
2022/02/17 02:36:01;;;;;;;16.10;3.70;;;9.40;99.90;;;;;;5013353;28;20624;-59
2022/02/17 02:38:50;;;;;;;15.40;3.67;;;9.40;99.90;;;;;;5031617;28;20248;-59
2022/02/17 02:41:22;;;;;;;20.27;3.93;;;9.30;99.90;;;;;;5011786;28;20245;-58
2022/02/17 02:43:53;;;;;;;19.37;3.13;;;9.30;99.90;;;;;;5012209;28;20232;-59
2022/02/17 02:46:21;;;;;;;14.23;3.07;;;9.30;99.90;;;;;;5007244;28;20709;-58
2022/02/17 02:48:53;;;;;;;15.17;3.30;;;9.30;99.90;;;;;;5011235;28;20241;-59
2022/02/17 02:51:23;;;;;;;14.80;3.07;;;9.30;99.90;;;;;;5011997;28;20320;-58
2022/02/17 02:53:51;;;;;;;12.73;3.00;;;9.20;99.90;;;;;;5021754;28;20716;-58
2022/02/17 02:56:19;;;;;;;16.17;3.20;;;9.20;99.90;;;;;;5015404;28;20242;-58
2022/02/17 02:58:47;;;;;;;15.50;2.90;;;9.20;99.90;;;;;;5011273;28;20838;-58
2022/02/17 03:01:15;;;;;;;14.17;3.63;;;9.20;99.90;;;;;;5012669;28;20240;-59
2022/02/17 03:03:50;;;;;;;16.87;3.50;;;9.20;99.90;;;;;;5012198;28;20562;-58
2022/02/17 03:06:19;;;;;;;13.13;2.47;;;9.10;99.90;;;;;;5013147;28;20637;-58
2022/02/17 03:08:49;;;;;;;15.73;2.93;;;9.10;99.90;;;;;;5011081;28;20244;-58
2022/02/17 03:11:26;;;;;;;16.00;3.00;;;9.20;99.90;;;;;;5014990;28;20787;-58
2022/02/17 03:13:55;;;;;;;18.03;3.13;;;9.10;99.90;;;;;;5011481;28;20236;-58
2022/02/17 03:16:27;;;;;;;14.60;2.67;;;9.10;99.90;;;;;;5017144;28;20608;-58
2022/02/17 03:18:57;;;;;;;14.37;2.50;;;9.10;99.90;;;;;;5017795;28;20292;-59
2022/02/17 03:21:25;;;;;;;16.13;3.00;;;9.00;99.90;;;;;;5012632;28;20229;-59
2022/02/17 03:23:57;;;;;;;15.33;3.40;;;9.00;99.90;;;;;;5011127;28;20255;-58
2022/02/17 03:26:27;;;;;;;12.30;3.17;;;9.00;99.90;;;;;;5010799;28;20255;-58
2022/02/17 03:28:58;;;;;;;17.90;2.93;;;9.00;99.90;;;;;;5010798;28;20233;-59
2022/02/17 03:31:26;;;;;;;13.97;2.73;;;9.00;99.90;;;;;;5010831;28;20308;-59
2022/02/17 03:34:04;;;;;;;13.27;3.03;;;9.00;99.90;;;;;;5010780;28;20268;-58
2022/02/17 03:36:34;;;;;;;18.60;3.00;;;9.00;99.90;;;;;;5010489;28;20314;-58
2022/02/17 03:39:05;;;;;;;14.80;3.30;;;9.00;99.90;;;;;;5010781;28;20245;-59
2022/02/17 03:41:55;;;;;;;17.87;2.97;;;8.90;99.90;;;;;;5011817;28;20261;-58
2022/02/17 03:44:28;;;;;;;12.37;2.93;;;8.90;99.90;;;;;;5009169;28;20240;-58
2022/02/17 03:47:07;;;;;;;18.23;3.50;;;8.90;99.90;;;;;;5014584;28;20237;-58
2022/02/17 03:49:49;;;;;;;19.60;3.90;;;8.90;99.90;;;;;;5026492;28;20239;-58
2022/02/17 03:52:18;;;;;;;20.57;3.40;;;8.90;99.90;;;;;;5030435;28;20241;-59
2022/02/17 03:55:08;;;;;;;17.60;3.50;;;8.90;99.90;;;;;;5029818;28;20232;-58
2022/02/17 03:57:38;;;;;;;18.97;4.17;;;8.90;99.90;;;;;;5029962;28;20259;-59
2022/02/17 04:00:08;;;;;;;15.10;3.50;;;8.90;99.90;;;;;;5030206;28;20786;-59
2022/02/17 04:02:44;;;;;;;17.37;3.83;;;8.90;99.90;;;;;;5031473;28;20680;-59
2022/02/17 04:05:14;;;;;;;19.37;3.50;;;8.80;99.90;;;;;;5030741;28;20600;-58
2022/02/17 04:07:42;;;;;;;20.13;3.60;;;8.80;99.90;;;;;;5029706;28;20248;-58
2022/02/17 04:10:29;;;;;;;19.53;3.53;;;8.80;99.90;;;;;;5009969;28;20241;-58
2022/02/17 04:13:00;;;;;;;16.57;2.70;;;8.80;99.90;;;;;;5009392;28;20330;-59
2022/02/17 04:15:38;;;;;;;14.60;3.13;;;8.80;99.90;;;;;;5003255;28;20336;-58
2022/02/17 04:18:08;;;;;;;14.73;3.17;;;8.80;99.90;;;;;;5002752;28;20241;-58
2022/02/17 04:20:48;;;;;;;21.93;3.40;;;8.80;99.90;;;;;;5009817;28;20287;-59
2022/02/17 04:23:33;;;;;;;19.97;3.93;;;8.80;99.90;;;;;;5029375;28;20309;-59
2022/02/17 04:26:03;;;;;;;20.03;4.03;;;8.80;99.90;;;;;;5031419;28;20661;-59
2022/02/17 04:28:49;;;;;;;19.20;3.33;;;8.70;99.90;;;;;;5021694;28;20240;-58
2022/02/17 04:31:20;;;;;;;21.87;3.90;;;8.60;99.90;;;;;;5029172;28;20232;-57
2022/02/17 04:33:51;;;;;;;22.10;3.87;;;8.50;99.90;;;;;;5023090;28;20252;-60
2022/02/17 04:36:24;;;;;;;15.10;3.33;;;8.50;99.90;;;;;;5009198;28;20298;-58
2022/02/17 04:38:53;;;;;;;23.67;3.97;;;8.40;99.90;;;;;;5004341;28;20737;-59
2022/02/17 04:44:14;;;;;;;16.80;3.50;;;8.40;99.90;;;;;;5005473;28;20303;-59
2022/02/17 04:46:43;;;;;;;15.27;3.47;;;8.40;99.90;;;;;;5005477;28;20300;-60
2022/02/17 04:49:11;;;;;;;15.07;3.27;;;8.40;99.90;;;;;;5003973;28;20252;-59
2022/02/17 04:51:40;;;;;;;18.03;3.30;;;8.40;99.90;;;;;;5006734;28;20244;-59
2022/02/17 04:54:14;;;;;;;21.10;3.63;;;8.30;99.90;;;;;;5005135;28;20704;-59
2022/02/17 04:56:46;;;;;;;17.90;2.83;;;8.30;99.90;;;;;;5005090;28;20332;-59
2022/02/17 04:59:15;;;;;;;19.10;3.33;;;8.30;99.90;;;;;;5003886;28;20241;-59
2022/02/17 05:01:48;;;;;;;16.23;3.50;;;8.20;99.90;;;;;;5025134;28;20236;-59
2022/02/17 05:04:33;;;;;;;15.27;3.20;;;8.20;99.90;;;;;;5026020;28;20256;-59
2022/02/17 05:07:08;;;;;;;18.00;4.00;;;8.20;99.90;;;;;;5006391;28;20268;-59
2022/02/17 05:09:37;;;;;;;25.83;4.70;;;8.20;99.90;;;;;;5004127;28;20249;-59
2022/02/17 05:12:08;;;;;;;18.00;3.87;;;8.20;99.90;;;;;;5005041;28;20245;-60
2022/02/17 05:14:36;;;;;;;19.97;3.13;;;8.10;99.90;;;;;;5004888;28;20251;-60
2022/02/17 05:17:07;;;;;;;20.17;3.70;;;8.10;99.90;;;;;;5005107;28;20776;-60
2022/02/17 05:19:36;;;;;;;20.53;4.77;;;8.10;99.90;;;;;;5003959;28;20241;-59
2022/02/17 05:22:40;;;;;;;16.50;3.30;;;8.10;99.90;;;;;;5032529;28;20239;-59
2022/02/17 05:25:20;;;;;;;21.47;4.03;;;8.10;99.90;;;;;;5028273;28;20228;-59
2022/02/17 05:28:08;;;;;;;22.97;4.13;;;8.20;99.90;;;;;;5026824;28;20232;-58
2022/02/17 05:30:52;;;;;;;17.47;3.60;;;8.20;99.90;;;;;;5009979;28;20240;-60
2022/02/17 05:33:48;;;;;;;19.93;4.63;;;8.20;99.90;;;;;;5027283;28;20660;-58
2022/02/17 05:36:40;;;;;;;16.50;3.20;;;8.20;99.90;;;;;;5010113;28;20240;-59
2022/02/17 05:39:23;;;;;;;19.97;3.87;;;8.30;99.90;;;;;;5006931;28;21207;-59
2022/02/17 05:41:54;;;;;;;21.10;3.97;;;8.30;99.90;;;;;;5009775;28;20637;-59
2022/02/17 05:44:24;;;;;;;20.47;4.40;;;8.20;99.90;;;;;;5009862;28;20296;-60
2022/02/17 05:46:52;;;;;;;16.23;3.50;;;8.20;99.90;;;;;;5010325;28;20251;-58
2022/02/17 05:49:20;;;;;;;14.83;3.60;;;8.20;99.90;;;;;;5008080;28;20256;-59
2022/02/17 05:51:49;;;;;;;21.37;4.10;;;8.20;99.90;;;;;;5008579;28;20243;-59
2022/02/17 05:54:17;;;;;;;18.93;4.37;;;8.20;99.90;;;;;;5009836;28;20233;-60
2022/02/17 05:56:45;;;;;;;15.33;3.27;;;8.20;99.90;;;;;;5009483;28;20241;-59
2022/02/17 05:59:13;;;;;;;17.43;3.83;;;8.20;99.90;;;;;;5012204;28;20657;-58
2022/02/17 06:01:43;;;;;;;19.33;3.50;;;8.20;99.90;;;;;;5018166;28;20814;-60
2022/02/17 06:04:14;;;;;;;18.97;3.70;;;8.20;99.90;;;;;;5017333;28;20304;-59
2022/02/17 06:06:42;;;;;;;19.73;3.50;;;8.30;99.90;;;;;;5015155;28;20237;-58
2022/02/17 06:09:10;;;;;;;15.60;3.73;;;8.30;99.90;;;;;;5011560;28;20245;-59
2022/02/17 06:11:38;;;;;;;19.30;3.73;;;8.30;99.90;;;;;;5014797;28;20717;-58
2022/02/17 06:14:10;;;;;;;18.10;2.93;;;8.30;99.90;;;;;;5015929;28;20319;-59
2022/02/17 06:16:38;;;;;;;14.03;3.07;;;8.30;99.90;;;;;;5014462;28;20233;-59
2022/02/17 06:19:08;;;;;;;14.73;3.07;;;8.20;99.90;;;;;;5011091;28;20237;-59
2022/02/17 06:21:37;;;;;;;17.30;3.27;;;8.20;99.90;;;;;;5014637;28;20765;-59
2022/02/17 06:24:05;;;;;;;15.57;3.27;;;8.20;99.90;;;;;;5006943;28;20233;-59
2022/02/17 06:26:34;;;;;;;15.73;2.93;;;8.20;99.90;;;;;;5008149;28;20658;-58
2022/02/17 06:29:04;;;;;;;18.17;3.37;;;8.20;99.90;;;;;;5004955;28;20331;-59
2022/02/17 06:31:32;;;;;;;17.53;3.27;;;8.20;99.90;;;;;;5006261;28;21414;-58
2022/02/17 06:34:00;;;;;;;19.73;4.40;;;8.10;99.90;;;;;;5006689;28;20624;-59
2022/02/17 06:36:30;;;;;;;17.10;3.47;;;8.00;99.90;;;;;;5007589;28;20796;-58
2022/02/17 06:38:59;;;;;;;12.90;3.00;;;7.90;99.90;;;;;;5006488;28;20244;-59
2022/02/17 06:41:29;;;;;;;21.67;4.03;;;7.80;99.90;;;;;;5007306;28;21130;-59
2022/02/17 06:43:57;;;;;;;19.70;3.70;;;7.80;99.90;;;;;;5008480;28;20788;-58
2022/02/17 06:46:25;;;;;;;18.97;3.60;;;7.80;99.90;;;;;;5008844;28;20641;-59
2022/02/17 06:48:54;;;;;;;22.40;4.33;;;7.80;99.90;;;;;;5007049;28;20251;-59
2022/02/17 06:51:22;;;;;;;26.40;4.60;;;7.80;99.90;;;;;;5008857;28;20299;-59
2022/02/17 06:53:51;;;;;;;27.23;3.70;;;7.80;99.90;;;;;;5007573;28;20237;-58
2022/02/17 06:56:21;;;;;;;14.00;2.90;;;7.80;99.90;;;;;;5029624;28;20232;-58
2022/02/17 06:58:49;;;;;;;13.97;3.60;;;7.80;99.90;;;;;;5020188;28;20264;-58
2022/02/17 07:01:23;;;;;;;9.67;2.53;;;7.70;99.90;;;;;;5026326;28;20326;-59
2022/02/17 07:03:52;;;;;;;19.00;3.20;;;7.70;99.90;;;;;;5011992;28;20806;-59
2022/02/17 07:06:23;;;;;;;13.73;2.77;;;7.70;99.90;;;;;;5012856;28;20247;-58
2022/02/17 07:08:53;;;;;;;13.83;2.83;;;7.70;99.90;;;;;;5027876;28;20252;-59
2022/02/17 07:11:21;;;;;;;18.17;3.77;;;7.70;99.90;;;;;;5013142;28;20229;-58
2022/02/17 07:13:49;;;;;;;12.80;2.60;;;7.70;99.90;;;;;;5014983;28;20259;-60
2022/02/17 07:16:17;;;;;;;9.27;2.20;;;7.70;99.90;;;;;;5009013;28;20236;-59
2022/02/17 07:18:46;;;;;;;15.33;3.30;;;7.80;99.90;;;;;;5006254;28;20240;-58
2022/02/17 07:21:15;;;;;;;13.40;2.60;;;7.70;99.90;;;;;;5007955;28;20236;-59
2022/02/17 07:23:43;;;;;;;11.73;2.93;;;7.70;99.90;;;;;;5007546;28;20249;-59
2022/02/17 07:26:13;;;;;;;21.17;3.43;;;7.70;99.90;;;;;;5008544;28;20248;-59
2022/02/17 07:28:41;;;;;;;13.93;2.80;;;7.70;99.90;;;;;;5005858;28;20245;-59
2022/02/17 07:31:10;;;;;;;14.30;2.93;;;7.70;99.90;;;;;;5007180;28;20233;-60
2022/02/17 07:33:39;;;;;;;15.33;2.70;;;7.60;99.90;;;;;;5007217;28;20272;-58
2022/02/17 07:36:09;;;;;;;20.20;3.60;;;7.60;99.90;;;;;;5007689;28;20264;-59
2022/02/17 07:38:53;;;;;;;14.30;2.83;;;7.60;99.90;;;;;;5005428;28;20249;-59
2022/02/17 07:41:22;;;;;;;14.33;2.70;;;7.60;99.90;;;;;;5008125;28;20758;-59
2022/02/17 07:43:51;;;;;;;17.30;3.30;;;7.50;99.90;;;;;;5011830;28;20244;-58
2022/02/17 07:46:20;;;;;;;17.50;3.30;;;7.50;99.90;;;;;;5027576;28;20248;-58
2022/02/17 07:48:50;;;;;;;18.03;2.87;;;7.50;99.90;;;;;;5025014;28;20275;-58
2022/02/17 07:51:18;;;;;;;19.63;3.43;;;7.50;99.90;;;;;;5011955;28;20328;-59
2022/02/17 07:53:46;;;;;;;17.13;2.47;;;7.40;99.90;;;;;;5006966;28;20284;-59
2022/02/17 07:56:16;;;;;;;12.83;2.70;;;7.40;99.90;;;;;;5007523;28;20248;-59
2022/02/17 07:58:45;;;;;;;15.13;2.80;;;7.30;99.90;;;;;;5005897;28;20241;-59
2022/02/17 08:01:18;;;;;;;13.73;2.83;;;7.30;99.90;;;;;;5007616;28;20335;-58
2022/02/17 08:03:51;;;;;;;13.97;3.13;;;7.20;99.90;;;;;;5026542;28;20866;-58
2022/02/17 08:06:19;;;;;;;12.53;2.60;;;7.20;99.90;;;;;;5027388;28;20255;-59
2022/02/17 08:08:56;;;;;;;15.13;2.53;;;7.20;99.90;;;;;;5005666;28;20249;-59
2022/02/17 08:11:24;;;;;;;17.87;3.00;;;7.10;99.90;;;;;;5007224;28;20722;-59
2022/02/17 08:13:56;;;;;;;15.07;2.50;;;7.10;99.90;;;;;;5007043;28;20617;-59
2022/02/17 08:16:24;;;;;;;17.57;3.10;;;7.10;99.90;;;;;;5007065;28;20245;-59
2022/02/17 08:18:52;;;;;;;12.53;2.80;;;7.00;99.90;;;;;;5004638;28;20241;-59
2022/02/17 08:21:41;;;;;;;17.50;2.70;;;7.00;99.90;;;;;;5006724;28;20937;-59
2022/02/17 08:24:09;;;;;;;18.80;3.13;;;7.00;99.90;;;;;;5006690;28;20335;-59
2022/02/17 08:26:38;;;;;;;13.23;2.57;;;7.00;99.90;;;;;;5006770;28;20245;-59
2022/02/17 08:29:08;;;;;;;11.03;2.50;;;7.10;99.90;;;;;;5005291;28;20251;-58
2022/02/17 08:31:37;;;;;;;10.77;2.57;;;7.10;99.90;;;;;;5006977;28;20273;-58
2022/02/17 08:34:05;;;;;;;20.00;2.97;;;7.00;99.90;;;;;;5006902;28;20743;-59
2022/02/17 08:36:35;;;;;;;15.30;2.57;;;7.00;99.90;;;;;;5006597;28;20688;-59
2022/02/17 08:39:06;;;;;;;16.40;3.20;;;7.00;99.90;;;;;;5005426;28;20348;-58
2022/02/17 08:41:35;;;;;;;17.43;3.17;;;7.00;99.90;;;;;;5006619;28;20268;-59
2022/02/17 08:44:04;;;;;;;12.30;2.50;;;7.10;99.90;;;;;;5006532;28;20253;-59
2022/02/17 08:46:34;;;;;;;9.80;2.40;;;7.10;99.90;;;;;;5006477;28;20276;-59
2022/02/17 08:49:05;;;;;;;10.90;2.23;;;7.10;99.90;;;;;;5005473;28;20263;-58
2022/02/17 08:51:34;;;;;;;14.93;2.57;;;7.10;99.90;;;;;;5006281;28;20253;-59
2022/02/17 08:54:02;;;;;;;12.23;1.93;;;7.10;99.90;;;;;;5006346;28;20257;-58
2022/02/17 08:56:30;;;;;;;13.40;2.63;;;7.20;99.90;;;;;;5006045;28;20291;-58
2022/02/17 08:58:59;;;;;;;10.53;2.37;;;7.10;99.90;;;;;;5004963;28;20606;-58
2022/02/17 09:01:30;;;;;;;11.73;2.57;;;7.10;99.90;;;;;;5005850;28;20319;-58
2022/02/17 09:04:01;;;;;;;13.77;2.63;;;7.10;99.90;;;;;;5005656;28;20229;-58
2022/02/17 09:06:31;;;;;;;12.57;2.90;;;7.10;99.90;;;;;;5006117;28;20241;-58
2022/02/17 09:09:00;;;;;;;9.90;2.20;;;7.10;99.90;;;;;;5005276;28;20244;-59
2022/02/17 09:11:29;;;;;;;11.63;2.17;;;7.10;99.90;;;;;;5006220;28;20228;-58
2022/02/17 09:13:57;;;;;;;12.00;2.13;;;7.10;99.90;;;;;;5005471;28;20585;-58
2022/02/17 09:16:25;;;;;;;16.57;3.13;;;7.00;99.90;;;;;;5006049;28;20240;-60
2022/02/17 09:18:53;;;;;;;11.73;2.33;;;7.00;99.90;;;;;;5005123;28;20233;-59
2022/02/17 09:21:23;;;;;;;13.27;2.53;;;6.90;99.90;;;;;;5006437;28;20744;-59
2022/02/17 09:23:51;;;;;;;13.40;2.40;;;6.90;99.90;;;;;;5006502;28;20245;-59
2022/02/17 09:26:19;;;;;;;12.73;2.00;;;6.90;99.90;;;;;;5006540;28;20237;-59
2022/02/17 09:28:48;;;;;;;12.17;2.30;;;6.90;99.90;;;;;;5004878;28;20641;-59
2022/02/17 09:31:36;;;;;;;17.00;3.13;;;6.80;99.90;;;;;;5005931;28;20295;-59
2022/02/17 09:34:07;;;;;;;10.33;2.23;;;6.80;99.90;;;;;;5005948;28;20237;-59
2022/02/17 09:36:38;;;;;;;12.43;2.47;;;6.80;99.90;;;;;;5006168;28;20340;-59
2022/02/17 09:39:07;;;;;;;15.23;1.97;;;6.80;99.90;;;;;;5005045;28;20253;-60
2022/02/17 09:41:38;;;;;;;4.80;1.53;;;6.80;99.90;;;;;;5006113;28;20590;-59
2022/02/17 09:44:08;;;;;;;9.70;2.30;;;6.80;99.90;;;;;;5006182;28;20237;-59
2022/02/17 09:46:45;;;;;;;16.43;2.60;;;6.80;99.90;;;;;;5006156;28;20276;-58
2022/02/17 09:49:17;;;;;;;12.83;2.40;;;6.80;99.90;;;;;;5004993;28;20247;-59
2022/02/17 09:51:48;;;;;;;12.00;2.13;;;6.80;99.90;;;;;;5006125;28;20245;-59
2022/02/17 09:54:18;;;;;;;10.70;2.40;;;6.80;99.90;;;;;;5005756;28;20605;-59
2022/02/17 09:56:47;;;;;;;9.77;2.37;;;6.80;99.90;;;;;;5005899;28;20558;-59
2022/02/17 09:59:16;;;;;;;15.53;2.93;;;6.90;99.90;;;;;;5004325;28;20232;-60
2022/02/17 10:01:57;;;;;;;12.17;2.87;;;6.90;99.90;;;;;;5006010;28;20356;-59
2022/02/17 10:04:26;;;;;;;15.17;2.73;;;6.90;99.90;;;;;;5005346;28;20237;-58
2022/02/17 10:06:58;;;;;;;16.77;2.90;;;6.90;99.90;;;;;;5005887;28;20324;-59
2022/02/17 10:09:40;;;;;;;11.53;2.97;;;6.90;99.90;;;;;;5004253;28;20276;-59
2022/02/17 10:12:10;;;;;;;14.00;2.40;;;6.90;99.90;;;;;;5008988;28;20252;-60
2022/02/17 10:14:39;;;;;;;13.00;2.70;;;7.00;99.90;;;;;;5008944;28;20737;-60
2022/02/17 10:17:09;;;;;;;14.33;2.77;;;7.00;99.90;;;;;;5009510;28;20276;-59
2022/02/17 10:19:41;;;;;;;12.53;2.53;;;7.00;99.90;;;;;;5008517;28;20245;-59
2022/02/17 10:22:12;;;;;;;15.43;3.03;;;7.00;99.90;;;;;;5009143;28;20252;-60
2022/02/17 10:24:43;;;;;;;16.20;2.50;;;7.10;99.90;;;;;;5008415;28;20273;-59
2022/02/17 10:27:13;;;;;;;10.00;1.93;;;7.00;99.90;;;;;;5008682;28;20237;-59
2022/02/17 10:29:59;;;;;;;8.47;1.47;;;6.90;99.90;;;;;;5007634;28;20269;-59
2022/02/17 10:32:28;;;;;;;7.73;1.43;;;6.60;99.90;;;;;;5008152;28;20260;-59
2022/02/17 10:35:11;;;;;;;9.07;1.50;;;6.60;99.90;;;;;;5008170;28;20805;-61
2022/02/17 10:37:45;;;;;;;7.43;1.50;;;6.60;99.90;;;;;;5006087;28;20644;-60
2022/02/17 10:40:20;;;;;;;11.27;2.13;;;6.50;99.90;;;;;;5009080;28;20648;-61
2022/02/17 10:43:02;;;;;;;7.77;1.50;;;6.50;99.90;;;;;;5008815;28;20264;-61
2022/02/17 10:45:39;;;;;;;10.47;1.70;;;6.40;99.90;;;;;;5007827;28;20274;-60
2022/02/17 10:48:16;;;;;;;8.47;2.10;;;6.40;99.90;;;;;;5006965;28;20280;-60
2022/02/17 10:50:46;;;;;;;9.80;1.70;;;6.30;99.90;;;;;;5008114;28;20751;-60
2022/02/17 10:53:25;;;;;;;8.77;1.80;;;6.40;99.90;;;;;;5007788;28;20272;-61
2022/02/17 10:55:55;;;;;;;11.67;2.17;;;6.40;99.90;;;;;;5007900;28;20299;-61
2022/02/17 10:58:27;;;;;;;7.63;1.93;;;6.40;99.90;;;;;;5006397;28;20308;-61
2022/02/17 11:00:57;;;;;;;10.40;2.17;;;6.40;99.90;;;;;;5008127;28;20237;-61
2022/02/17 11:03:27;;;;;;;15.50;1.97;;;6.40;99.90;;;;;;5008290;28;20249;-61
2022/02/17 11:06:08;;;;;;;8.83;2.13;;;6.40;99.90;;;;;;5007589;28;20240;-60
2022/02/17 11:08:40;;;;;;;13.30;2.33;;;6.40;99.90;;;;;;5006718;28;20249;-60
2022/02/17 11:11:09;;;;;;;13.17;2.23;;;6.40;99.90;;;;;;5008336;28;20687;-61
2022/02/17 11:13:37;;;;;;;13.27;2.57;;;6.40;99.90;;;;;;5007573;28;20249;-60
2022/02/17 11:16:11;;;;;;;10.57;2.23;;;6.30;99.90;;;;;;5007888;28;20709;-59
2022/02/17 11:18:41;;;;;;;11.17;1.83;;;6.30;99.90;;;;;;5006456;28;20237;-60
2022/02/17 11:21:14;;;;;;;4.90;1.30;;;6.30;99.90;;;;;;5008389;28;20237;-61
2022/02/17 11:23:45;;;;;;;9.50;1.63;;;6.20;99.90;;;;;;5007764;28;20286;-61
2022/02/17 11:26:23;;;;;;;8.17;2.17;;;6.10;99.90;;;;;;5007707;28;20248;-60
2022/02/17 11:28:59;;;;;;;5.10;1.20;;;6.00;99.90;;;;;;5006172;28;20303;-60
2022/02/17 11:31:27;;;;;;;4.73;1.00;;;5.90;99.90;;;;;;5007728;28;20244;-60
2022/02/17 11:33:56;;;;;;;5.17;0.97;;;5.90;99.90;;;;;;5007238;28;20287;-61
2022/02/17 11:36:32;;;;;;;4.40;1.30;;;5.80;99.90;;;;;;5006995;28;20237;-61
2022/02/17 11:39:06;;;;;;;7.60;1.73;;;5.80;99.90;;;;;;5005681;28;20239;-61
2022/02/17 11:41:36;;;;;;;6.03;1.23;;;5.80;99.90;;;;;;5007079;28;20480;-61
2022/02/17 11:44:18;;;;;;;8.57;1.63;;;5.80;99.90;;;;;;5007185;28;20275;-60
2022/02/17 11:46:52;;;;;;;6.43;1.60;;;5.80;99.90;;;;;;5006945;28;20237;-60
2022/02/17 11:49:49;;;;;;;8.73;1.40;;;5.80;99.90;;;;;;5005544;28;20693;-61
2022/02/17 11:52:19;;;;;;;13.13;2.40;;;5.90;99.90;;;;;;5006037;28;20232;-61
2022/02/17 11:55:23;;;;;;;9.33;1.83;;;6.00;99.90;;;;;;5005170;28;20240;-61
2022/02/17 11:57:52;;;;;;;16.03;2.70;;;6.10;99.90;;;;;;5005531;28;20252;-60
2022/02/17 12:00:34;;;;;;;7.87;1.77;;;6.10;99.90;;;;;;5006615;28;20229;-58
2022/02/17 12:03:03;;;;;;;9.33;1.70;;;6.10;99.90;;;;;;5006155;28;20240;-59
2022/02/17 12:05:31;;;;;;;13.77;3.03;;;6.10;99.90;;;;;;5006874;28;20248;-59
2022/02/17 12:08:24;;;;;;;10.80;2.37;;;6.10;99.90;;;;;;5005674;28;20812;-58
2022/02/17 12:10:55;;;;;;;12.63;2.50;;;6.10;99.90;;;;;;5026948;28;20252;-58
2022/02/17 12:13:30;;;;;;;8.23;1.60;;;6.00;99.90;;;;;;5026721;28;20724;-59
2022/02/17 12:15:59;;;;;;;9.93;1.83;;;5.90;99.90;;;;;;5007050;28;20248;-59
2022/02/17 12:18:37;;;;;;;5.13;1.20;;;5.80;99.90;;;;;;5004421;28;20577;-59
2022/02/17 12:21:05;;;;;;;4.47;1.23;;;5.80;99.90;;;;;;5006784;28;20338;-59
2022/02/17 12:23:36;;;;;;;7.03;1.30;;;5.60;99.90;;;;;;5006545;28;20251;-61
2022/02/17 12:26:11;;;;;;;2.77;0.80;;;5.50;99.90;;;;;;5004132;28;20249;-61
2022/02/17 12:28:39;;;;;;;4.47;0.70;;;5.40;99.90;;;;;;5000531;28;21043;-61
2022/02/17 12:31:07;;;;;;;4.30;0.80;;;5.40;99.90;;;;;;5002337;28;20480;-61
2022/02/17 12:33:38;;;;;;;4.83;1.13;;;5.40;99.90;;;;;;5001783;28;20354;-60
2022/02/17 12:36:12;;;;;;;4.93;0.90;;;5.40;99.90;;;;;;5001228;28;20487;-60
2022/02/17 12:38:41;;;;;;;4.17;0.90;;;5.50;99.90;;;;;;5001065;28;20693;-61
2022/02/17 12:41:13;;;;;;;8.30;1.50;;;5.50;99.90;;;;;;5002526;28;20483;-61
2022/02/17 12:43:43;;;;;;;9.27;1.30;;;5.70;99.90;;;;;;5002006;28;20240;-60
2022/02/17 12:46:15;;;;;;;8.57;2.07;;;5.80;99.90;;;;;;5002284;28;20926;-61
2022/02/17 12:48:44;;;;;;;12.23;2.40;;;5.90;99.90;;;;;;5005760;28;21215;-61
2022/02/17 12:51:28;;;;;;;16.37;2.20;;;6.00;99.90;;;;;;5005348;28;20522;-60
2022/02/17 12:54:08;;;;;;;14.30;2.93;;;6.10;99.90;;;;;;5006138;28;20263;-59
2022/02/17 12:56:41;;;;;;;14.00;2.50;;;6.10;99.90;;;;;;5005601;28;20248;-60
2022/02/17 12:59:12;;;;;;;18.37;2.97;;;6.20;99.90;;;;;;5005802;28;20348;-60
2022/02/17 13:01:44;;;;;;;20.73;3.37;;;6.20;99.90;;;;;;5004190;28;21009;-61
2022/02/17 13:04:12;;;;;;;11.93;2.40;;;6.30;99.90;;;;;;5004372;28;20732;-60
2022/02/17 13:06:40;;;;;;;12.23;2.07;;;6.20;99.90;;;;;;5006003;28;20748;-61
2022/02/17 13:09:16;;;;;;;9.47;1.87;;;6.20;99.90;;;;;;5005432;28;20604;-61
2022/02/17 13:11:51;;;;;;;9.97;1.90;;;6.10;99.90;;;;;;5006161;28;20248;-61
2022/02/17 13:14:22;;;;;;;9.57;1.90;;;6.00;99.90;;;;;;5005692;28;20240;-62